Time;durP1;ratioP1;P1;durP2;ratioP2;P2;SDS_P1;SDS_P2;PMS_P1;PMS_P2;Temp;Humidity;BMP_temperature;BMP_pressure;BME280_temperature;BME280_humidity;BME280_pressure;Samples;Min_cycle;Max_cycle;Signal;HPM_P1;HPM_P2
2022/02/09 00:00:17;;;;;;;1.10;0.73;;;;;;;9.93;55.74;100844.69;4449883;32;32856;-84
2022/02/09 00:03:01;;;;;;;0.75;0.60;;;;;;;10.14;55.35;100844.13;4462079;32;34224;-84
2022/02/09 00:05:42;;;;;;;1.45;0.60;;;;;;;9.79;56.47;100844.16;4460141;32;33894;-83
2022/02/09 00:08:11;;;;;;;1.67;0.43;;;;;;;9.86;56.61;100843.94;4445677;32;32859;-83
2022/02/09 00:10:41;;;;;;;0.62;0.40;;;;;;;10.00;56.13;100844.47;4462072;32;33344;-85
2022/02/09 00:15:49;;;;;;;0.62;0.50;;;;;;;9.59;57.54;100860.41;4460256;32;33832;-84
2022/02/09 00:40:00;;;;;;;1.05;0.40;;;;;;;9.99;55.97;100892.88;4456290;32;33605;-83
2022/02/09 00:45:22;;;;;;;0.60;0.50;;;;;;;9.97;56.00;100899.97;4443890;32;32844;-83
2022/02/09 01:56:42;;;;;;;2.00;0.50;;;;;;;9.69;56.99;100905.03;4464936;32;33918;-83
2022/02/09 01:59:09;;;;;;;0.90;0.70;;;;;;;10.03;55.74;100912.16;4453269;32;32648;-83
2022/02/09 02:01:37;;;;;;;1.37;0.55;;;;;;;10.05;56.08;100906.81;4453387;32;33607;-83
2022/02/09 02:04:04;;;;;;;3.28;0.75;;;;;;;10.22;55.52;100915.22;4457072;32;34786;-83
2022/02/09 02:06:34;;;;;;;2.08;0.60;;;;;;;10.33;55.02;100910.56;4436329;32;33537;-83
2022/02/09 02:09:03;;;;;;;2.78;0.70;;;;;;;9.90;56.26;100922.13;4428777;32;32751;-84
2022/02/09 02:11:38;;;;;;;0.75;0.40;;;;;;;10.03;55.91;100919.22;4446041;32;34369;-84
2022/02/09 02:16:58;;;;;;;1.70;0.52;;;;;;;10.42;54.62;100927.94;4460840;32;33562;-84
2022/02/09 02:19:33;;;;;;;1.95;0.50;;;;;;;10.29;55.08;100932.66;4459357;32;32732;-84
2022/02/09 02:22:07;;;;;;;1.75;0.62;;;;;;;10.33;55.05;100929.03;4437296;32;34137;-84
2022/02/09 02:27:40;;;;;;;1.42;0.65;;;;;;;10.51;54.28;100931.22;4456524;32;34795;-85
2022/02/09 02:59:42;;;;;;;1.52;0.50;;;;;;;10.70;53.85;100933.41;4449317;32;33811;-83
2022/02/09 03:08:26;;;;;;;4.85;0.82;;;;;;;10.45;54.77;100952.50;4451085;32;34703;-83
2022/02/09 03:11:02;;;;;;;1.17;0.70;;;;;;;10.52;54.49;100947.94;4442687;32;32762;-83
2022/02/09 03:13:34;;;;;;;1.75;0.30;;;;;;;10.68;53.84;100951.94;4454425;32;33234;-82
2022/02/09 03:16:07;;;;;;;;;;;;;;;10.46;54.51;100954.25;4434571;32;33455;-84
2022/02/09 03:23:57;;;;;;;0.90;0.50;;;;;;;10.47;54.39;100953.34;4433078;32;33279;-83
2022/02/09 03:50:28;;;;;;;1.17;0.43;;;;;;;10.51;53.97;100964.69;4451514;32;34486;-84
2022/02/09 03:58:19;;;;;;;6.15;0.60;;;;;;;10.51;53.93;100955.00;4442678;32;33769;-83
2022/02/09 04:00:47;;;;;;;0.55;0.45;;;;;;;10.51;54.08;100960.28;4441354;32;33120;-84
2022/02/09 04:03:21;;;;;;;0.98;0.37;;;;;;;10.35;54.76;100963.31;4436752;32;33653;-84
2022/02/09 04:05:50;;;;;;;3.33;0.68;;;;;;;10.69;53.68;100961.59;4458431;32;34177;-84
2022/02/09 04:08:20;;;;;;;1.02;0.43;;;;;;;10.37;54.73;100959.75;4443849;32;33179;-84
2022/02/09 04:11:04;;;;;;;3.35;0.80;;;;;;;10.73;53.65;100960.59;4460175;32;33973;-84
2022/02/09 04:16:16;;;;;;;2.55;0.77;;;;;;;10.59;54.24;100978.59;4455959;32;33038;-84
2022/02/09 04:40:55;;;;;;;1.67;0.60;;;;;;;10.52;54.45;100983.13;4450120;32;33570;-82
2022/02/09 04:56:24;;;;;;;2.72;0.70;;;;;;;10.90;53.63;100988.34;4458135;32;33161;-82
2022/02/09 04:59:09;;;;;;;2.70;0.98;;;;;;;10.61;54.58;100983.81;4443452;32;33440;-83
2022/02/09 05:18:28;;;;;;;1.20;0.65;;;;;;;10.77;54.38;100995.72;4448458;32;34095;-84
2022/02/09 05:28:44;;;;;;;0.55;0.35;;;;;;;10.91;54.39;101005.94;4445492;32;33890;-83
2022/02/09 05:31:11;;;;;;;1.40;1.17;;;;;;;10.56;55.56;101001.56;4459312;32;33016;-83
2022/02/09 05:33:40;;;;;;;2.05;1.00;;;;;;;10.31;56.20;101004.78;4434770;32;33729;-82
2022/02/09 05:36:16;;;;;;;1.17;0.80;;;;;;;10.80;54.83;101013.28;4439695;32;34914;-83
2022/02/09 05:38:44;;;;;;;1.10;0.85;;;;;;;10.94;54.54;100996.16;4433874;32;33884;-83
2022/02/09 05:41:12;;;;;;;2.60;1.02;;;;;;;10.82;54.81;101001.75;4446397;32;34155;-84
2022/02/09 05:43:41;;;;;;;3.12;1.10;;;;;;;10.91;54.57;100996.22;4441651;32;33616;-83
2022/02/09 05:51:52;;;;;;;2.80;1.08;;;;;;;10.97;54.64;100989.94;4440155;32;32348;-83
2022/02/09 05:55:20;;;;;;;2.17;0.98;;;;;;;10.59;55.79;101004.13;4427817;32;32705;-84
2022/02/09 05:59:49;;;;;;;0.60;0.52;;;;;;;10.89;55.09;100991.91;4440088;32;33487;-84
2022/02/09 06:02:19;;;;;;;2.20;0.93;;;;;;;10.83;55.10;100987.66;4440439;32;33433;-84
2022/02/09 06:04:47;;;;;;;1.20;0.93;;;;;;;10.96;54.95;100993.47;4446270;32;33658;-84
2022/02/09 06:07:19;;;;;;;2.53;0.98;;;;;;;10.94;54.98;100988.22;4443661;32;34196;-84
2022/02/09 06:09:47;;;;;;;1.27;0.70;;;;;;;10.96;54.71;100999.63;4442284;32;34603;-84
2022/02/09 06:12:42;;;;;;;2.08;0.60;;;;;;;10.86;54.97;101003.41;4445582;32;32816;-85
2022/02/09 06:20:42;;;;;;;0.88;0.60;;;;;;;10.77;55.51;101022.12;4449148;32;34804;-83
2022/02/09 06:23:10;;;;;;;2.20;0.73;;;;;;;10.58;56.23;101027.00;4446557;32;32787;-84
2022/02/09 06:25:37;;;;;;;1.65;0.75;;;;;;;10.66;56.02;101024.19;4439421;32;32805;-84
2022/02/09 06:28:05;;;;;;;0.90;0.80;;;;;;;10.73;55.75;101031.06;4445291;32;33112;-84
2022/02/09 06:30:33;;;;;;;2.25;0.80;;;;;;;10.76;55.70;101030.97;4420563;32;34406;-84
2022/02/09 06:33:01;;;;;;;0.80;0.50;;;;;;;11.02;54.84;101033.84;4438314;32;32553;-85
2022/02/09 06:35:29;;;;;;;1.20;0.90;;;;;;;11.10;54.55;101027.47;4433832;32;33250;-84
2022/02/09 06:37:59;;;;;;;2.67;0.98;;;;;;;11.00;54.81;101037.41;4432309;32;32225;-84
2022/02/09 06:40:27;;;;;;;2.10;1.17;;;;;;;11.01;54.94;101047.06;4447332;32;31987;-84
2022/02/09 06:42:56;;;;;;;2.17;0.88;;;;;;;11.22;54.38;101043.87;4438972;32;33617;-84
2022/02/09 06:45:28;;;;;;;1.33;0.90;;;;;;;11.12;54.34;101044.19;4431461;32;34566;-84
2022/02/09 06:47:58;;;;;;;1.17;0.70;;;;;;;11.03;54.75;101046.16;4440283;32;33982;-85
2022/02/09 06:50:35;;;;;;;1.27;0.60;;;;;;;11.07;54.44;101051.34;4439554;32;33423;-85
2022/02/09 06:55:55;;;;;;;1.85;0.57;;;;;;;10.87;55.30;101051.84;4455638;32;34563;-84
2022/02/09 07:01:03;;;;;;;3.58;0.93;;;;;;;11.21;53.93;101054.50;4436364;32;33049;-85
2022/02/09 07:03:32;;;;;;;0.82;0.60;;;;;;;11.11;54.48;101061.81;4440409;32;34975;-84
2022/02/09 07:06:00;;;;;;;1.00;0.45;;;;;;;10.94;54.42;101059.59;4442532;32;33229;-84
2022/02/09 07:08:28;;;;;;;1.45;0.75;;;;;;;10.65;55.61;101067.37;4445446;32;33696;-85
2022/02/09 07:10:56;;;;;;;0.85;0.65;;;;;;;10.77;55.14;101051.19;4430407;32;33219;-86
2022/02/09 07:13:24;;;;;;;2.08;0.30;;;;;;;10.86;54.93;101066.81;4431734;32;33358;-86
2022/02/09 07:15:54;;;;;;;1.73;0.88;;;;;;;10.62;55.51;101072.72;4431827;32;33667;-85
2022/02/09 07:18:24;;;;;;;1.75;0.60;;;;;;;10.70;55.29;101057.56;4429302;32;33107;-86
2022/02/09 07:23:33;;;;;;;2.60;1.30;;;;;;;10.61;55.60;101056.00;4447130;32;33454;-85
2022/02/09 07:28:33;;;;;;;1.50;0.47;;;;;;;10.58;55.60;101076.31;4445454;32;32541;-86
2022/02/09 07:31:02;;;;;;;1.62;0.62;;;;;;;10.96;54.61;101059.53;4443922;32;33544;-86
2022/02/09 07:33:30;;;;;;;1.90;0.70;;;;;;;10.96;54.33;101078.91;4437388;32;33152;-86
2022/02/09 07:35:58;;;;;;;1.40;0.73;;;;;;;10.89;54.78;101072.06;4423038;32;32874;-86
2022/02/09 07:38:25;;;;;;;4.22;0.93;;;;;;;10.99;54.54;101078.84;4434320;32;33255;-85
2022/02/09 07:40:57;;;;;;;2.28;1.25;;;;;;;10.97;54.57;101085.09;4440046;32;33847;-85
2022/02/09 07:44:02;;;;;;;1.45;0.73;;;;;;;10.99;54.50;101085.91;4421944;32;33562;-86
2022/02/09 07:49:05;;;;;;;0.40;0.40;;;;;;;11.08;54.20;101088.31;4442424;32;33489;-85
2022/02/09 07:51:53;;;;;;;1.12;0.50;;;;;;;11.21;53.97;101086.25;4438415;32;32519;-86
2022/02/09 07:54:24;;;;;;;1.50;0.62;;;;;;;10.95;55.20;101093.03;4434180;32;33330;-86
2022/02/09 07:56:53;;;;;;;1.37;0.82;;;;;;;11.16;54.32;101090.78;4442997;32;34629;-85
2022/02/09 07:59:20;;;;;;;2.55;1.10;;;;;;;11.32;54.10;101092.09;4442635;32;32357;-86
2022/02/09 08:01:48;;;;;;;1.92;0.60;;;;;;;11.31;54.00;101086.88;4438718;32;33278;-86
2022/02/09 08:04:17;;;;;;;1.58;0.60;;;;;;;11.23;54.08;101087.06;4444234;32;31483;-86
2022/02/09 08:06:47;;;;;;;3.60;0.80;;;;;;;11.51;53.27;101088.06;4436182;32;34431;-86
2022/02/09 08:31:34;;;;;;;1.10;0.75;;;;;;;11.85;52.91;101081.88;4442435;32;33595;-86
2022/02/09 08:33:59;;;;;;;2.62;1.27;;;;;;;11.81;53.55;101072.22;4435992;32;32276;-85
2022/02/09 08:36:36;;;;;;;2.35;1.05;;;;;;;11.86;52.53;101074.78;4435779;32;32444;-85
2022/02/09 08:39:05;;;;;;;1.12;0.52;;;;;;;11.92;52.78;101074.63;4444171;32;33164;-85
2022/02/09 08:41:34;;;;;;;1.30;0.57;;;;;;;12.05;52.27;101068.91;4440150;32;32066;-86
2022/02/09 08:44:02;;;;;;;2.33;0.62;;;;;;;11.73;53.35;101067.19;4443165;32;34114;-85
2022/02/09 08:46:31;;;;;;;2.20;0.90;;;;;;;11.95;52.46;101067.44;4439232;32;33191;-86
2022/02/09 08:48:58;;;;;;;2.20;0.80;;;;;;;12.12;52.08;101063.44;4425488;32;33401;-86
2022/02/09 08:51:27;;;;;;;0.85;0.50;;;;;;;11.88;53.18;101072.97;4435837;32;33755;-85
2022/02/09 08:53:55;;;;;;;0.57;0.50;;;;;;;12.18;52.06;101073.84;4436840;32;34449;-86
2022/02/09 08:56:24;;;;;;;1.55;0.73;;;;;;;12.37;51.45;101074.16;4442489;32;31636;-86
2022/02/09 08:58:52;;;;;;;0.73;0.68;;;;;;;12.47;51.41;101071.16;4437738;32;32852;-86
2022/02/09 09:01:42;;;;;;;1.95;0.47;;;;;;;12.31;51.87;101067.28;4448650;32;31567;-86
2022/02/09 09:04:19;;;;;;;1.27;0.80;;;;;;;12.71;50.79;101066.00;4440233;32;32642;-85
2022/02/09 09:06:54;;;;;;;1.77;0.62;;;;;;;12.59;51.26;101064.63;4444874;32;33275;-86
2022/02/09 09:09:37;;;;;;;4.62;1.20;;;;;;;12.65;51.35;101064.44;4440606;32;34265;-86
2022/02/09 09:15:25;;;;;;;1.25;1.15;;;;;;;12.91;50.17;101060.03;4433480;32;32749;-85
2022/02/09 10:35:17;;;;;;;1.12;0.88;;;;;;;14.32;46.98;101016.00;4448643;32;32038;-86
2022/02/09 10:37:45;;;;;;;2.25;1.40;;;;;;;14.28;46.55;101011.72;4435572;32;32725;-86
2022/02/09 10:40:33;;;;;;;1.00;0.90;;;;;;;14.26;46.70;101008.28;4449289;32;33302;-86
2022/02/09 10:43:03;;;;;;;1.55;0.77;;;;;;;14.00;47.68;101007.50;4460061;32;33178;-86
2022/02/09 10:45:38;;;;;;;3.60;0.88;;;;;;;14.23;46.63;100992.44;4455357;32;33426;-86
2022/02/09 10:48:30;;;;;;;2.55;0.98;;;;;;;14.06;47.16;100999.31;4446063;32;33931;-86
2022/02/09 10:51:27;;;;;;;1.87;0.80;;;;;;;14.25;48.26;100995.94;4462595;32;33818;-86
2022/02/09 10:54:03;;;;;;;0.75;0.75;;;;;;;14.39;46.71;100982.09;4455032;32;32804;-86
2022/02/09 10:56:33;;;;;;;0.82;0.80;;;;;;;14.49;46.48;100978.16;4447026;32;32818;-86
2022/02/09 10:59:05;;;;;;;0.88;0.73;;;;;;;14.56;45.81;100991.12;4449571;32;33303;-86
2022/02/09 11:01:35;;;;;;;1.10;0.93;;;;;;;14.52;46.65;100976.22;4452780;32;33656;-86
2022/02/09 11:04:04;;;;;;;1.02;0.90;;;;;;;14.44;46.42;100978.31;4459684;32;33472;-86
2022/02/09 11:06:33;;;;;;;1.80;0.80;;;;;;;14.66;45.36;100972.13;4443916;32;33100;-86
2022/02/09 11:09:03;;;;;;;1.10;1.00;;;;;;;14.42;46.16;100981.94;4451516;32;32342;-86
2022/02/09 11:11:33;;;;;;;0.80;0.70;;;;;;;14.72;45.24;100975.41;4456155;32;32952;-86
2022/02/09 11:14:01;;;;;;;1.42;0.90;;;;;;;14.84;45.12;100979.34;4460172;32;33700;-86
2022/02/09 11:16:30;;;;;;;2.33;1.25;;;;;;;14.46;45.81;100989.72;4452310;32;34118;-86
2022/02/09 11:18:59;;;;;;;4.53;1.42;;;;;;;14.29;47.00;100992.19;4461443;32;32608;-86
2022/02/09 11:21:30;;;;;;;1.25;0.90;;;;;;;14.76;45.37;100979.66;4449194;32;33913;-86
2022/02/09 11:24:09;;;;;;;3.45;1.00;;;;;;;14.94;45.04;100980.66;4452610;32;34702;-86
2022/02/09 11:26:46;;;;;;;2.30;1.20;;;;;;;15.29;44.35;100983.59;4443084;32;32599;-86
2022/02/09 11:29:54;;;;;;;2.37;0.88;;;;;;;15.15;44.58;100986.00;4454831;32;34544;-86
2022/02/09 11:32:32;;;;;;;1.37;0.70;;;;;;;14.92;45.85;100979.87;4441857;32;32579;-85
2022/02/09 11:35:30;;;;;;;2.28;0.88;;;;;;;15.21;44.22;100973.28;4432803;32;33270;-86
2022/02/09 11:38:19;;;;;;;1.35;0.90;;;;;;;15.43;43.96;100959.91;4431483;32;31641;-86
2022/02/09 11:41:32;;;;;;;1.65;0.73;;;;;;;15.32;45.27;100960.34;4446384;32;33855;-86
2022/02/09 11:44:19;;;;;;;1.73;0.60;;;;;;;15.71;43.34;100966.63;4435445;32;32984;-86
2022/02/09 11:50:03;;;;;;;1.20;0.60;;;;;;;15.73;43.69;100960.31;4450682;32;34170;-86
2022/02/09 12:12:04;;;;;;;2.05;1.15;;;;;;;16.09;42.12;100978.12;4458713;32;32874;-86
2022/02/09 12:15:13;;;;;;;1.48;0.90;;;;;;;16.04;42.31;100983.69;4433842;32;33186;-86
2022/02/09 12:20:32;;;;;;;0.68;0.50;;;;;;;15.99;42.55;100979.50;4446674;32;34680;-86
2022/02/09 12:23:28;;;;;;;1.00;0.52;;;;;;;15.82;43.09;100969.66;4444284;32;32958;-86
2022/02/09 12:25:56;;;;;;;0.52;0.50;;;;;;;16.16;42.21;100968.06;4459906;32;33836;-86
2022/02/09 12:28:34;;;;;;;1.90;0.70;;;;;;;16.51;41.21;100969.00;4449508;32;32534;-86
2022/02/09 12:31:14;;;;;;;1.75;0.90;;;;;;;16.30;42.44;100969.13;4433751;32;32721;-86
2022/02/09 12:33:47;;;;;;;0.95;0.70;;;;;;;16.29;41.64;100970.06;4435466;32;32576;-86
2022/02/09 12:36:21;;;;;;;0.40;0.37;;;;;;;16.48;41.15;100972.69;4448719;32;33085;-85
2022/02/09 12:38:55;;;;;;;1.05;0.68;;;;;;;16.24;41.54;100968.56;4434851;32;33285;-86
2022/02/09 12:41:24;;;;;;;0.68;0.52;;;;;;;16.31;41.30;100969.97;4430138;32;33123;-86
2022/02/09 12:44:00;;;;;;;0.68;0.37;;;;;;;15.96;42.54;100961.88;4444377;32;33397;-86
2022/02/09 12:46:32;;;;;;;2.25;0.90;;;;;;;16.53;40.91;100961.78;4455225;32;33101;-86
2022/02/09 12:49:11;;;;;;;2.65;1.10;;;;;;;16.28;41.49;100962.13;4435572;32;32847;-86
2022/02/09 12:51:41;;;;;;;1.23;0.77;;;;;;;16.57;40.61;100961.56;4447388;32;34128;-85
2022/02/09 12:54:10;;;;;;;1.33;0.57;;;;;;;16.17;41.57;100965.31;4450462;32;32958;-86
2022/02/09 12:56:41;;;;;;;1.30;0.60;;;;;;;16.14;41.75;100954.78;4463303;32;33534;-86
2022/02/09 12:59:14;;;;;;;0.88;0.40;;;;;;;15.98;42.10;100954.69;4446687;32;33014;-86
2022/02/09 13:01:49;;;;;;;0.90;0.60;;;;;;;15.76;42.75;100954.84;4430277;32;34088;-85
2022/02/09 13:04:37;;;;;;;1.35;0.57;;;;;;;15.70;42.71;100962.25;4459216;32;32954;-86
2022/02/09 13:07:13;;;;;;;0.28;0.20;;;;;;;15.79;42.77;100961.81;4462195;32;34686;-85
2022/02/09 13:09:46;;;;;;;1.17;0.70;;;;;;;15.75;42.69;100952.25;4431939;32;33609;-86
2022/02/09 13:12:14;;;;;;;1.73;0.70;;;;;;;15.36;43.74;100953.09;4437269;32;32309;-86
2022/02/09 13:14:46;;;;;;;1.70;0.62;;;;;;;15.24;44.02;100954.53;4433609;32;32898;-86
2022/02/09 13:20:34;;;;;;;0.70;0.45;;;;;;;15.77;42.95;100945.06;4446170;32;32673;-86
2022/02/09 13:23:12;;;;;;;1.40;0.60;;;;;;;15.79;42.95;100946.69;4448919;32;33571;-86
2022/02/09 13:53:33;;;;;;;0.82;0.47;;;;;;;15.92;42.92;100914.16;4447509;32;34370;-87
2022/02/09 14:02:54;;;;;;;0.95;0.47;;;;;;;16.02;42.72;100918.09;4429793;32;32947;-87
2022/02/09 14:53:04;;;;;;;2.50;1.17;;;;;;;14.86;45.99;100903.03;4449300;32;33985;-87
2022/02/09 14:56:02;;;;;;;2.37;0.93;;;;;;;15.17;45.31;100885.69;4431790;32;33244;-87
2022/02/09 14:58:28;;;;;;;3.30;1.10;;;;;;;15.04;45.35;100901.34;4451347;32;33880;-87
2022/02/09 15:01:07;;;;;;;2.53;1.50;;;;;;;14.89;45.61;100897.56;4440687;32;34314;-88
2022/02/09 15:09:08;;;;;;;2.53;0.82;;;;;;;15.07;45.05;100902.06;4450706;32;34194;-87
2022/02/09 15:12:25;;;;;;;1.85;1.00;;;;;;;15.06;45.21;100900.34;4439547;32;33282;-87
2022/02/09 15:14:48;;;;;;;2.58;0.80;;;;;;;15.22;44.75;100892.53;4430750;32;32711;-87
2022/02/09 15:22:48;;;;;;;2.20;0.68;;;;;;;15.12;45.04;100885.91;4453274;32;34162;-88
2022/02/09 15:25:19;;;;;;;2.30;1.15;;;;;;;15.08;45.51;100890.47;4435375;32;33281;-88
2022/02/09 15:27:51;;;;;;;3.28;1.20;;;;;;;14.96;45.76;100888.41;4454609;32;33447;-88
2022/02/09 15:30:19;;;;;;;2.00;1.10;;;;;;;14.82;45.88;100893.47;4450837;32;34155;-88
2022/02/09 15:32:51;;;;;;;8.73;1.55;;;;;;;14.93;45.75;100890.31;4457488;32;34535;-88
2022/02/09 15:35:42;;;;;;;3.05;1.73;;;;;;;15.03;45.32;100892.50;4460682;32;33297;-88
2022/02/09 15:38:19;;;;;;;4.22;1.65;;;;;;;14.85;45.70;100890.66;4459013;32;34064;-88
2022/02/09 15:41:16;;;;;;;2.75;1.73;;;;;;;14.88;45.59;100889.66;4435559;32;33457;-88
2022/02/09 15:44:06;;;;;;;3.67;1.40;;;;;;;14.79;45.81;100885.59;4458539;32;33990;-88
2022/02/09 16:22:32;;;;;;;18.00;9.98;;;;;;;13.22;48.89;100944.09;4435158;32;33701;-88
2022/02/09 16:44:31;;;;;;;11.90;6.47;;;;;;;12.69;49.05;100932.69;4450629;32;32510;-87
2022/02/09 16:46:59;;;;;;;14.90;5.68;;;;;;;12.67;49.06;100934.53;4429370;32;97907;-86
2022/02/09 16:52:43;;;;;;;13.23;6.82;;;;;;;12.38;49.72;100928.41;4424242;32;33901;-87
2022/02/09 16:55:35;;;;;;;13.65;6.55;;;;;;;12.39;49.50;100934.59;4448660;32;32692;-86
2022/02/09 17:19:50;;;;;;;12.90;6.20;;;;;;;11.27;52.08;100956.50;4440725;32;33633;-85
2022/02/09 17:22:18;;;;;;;16.00;6.45;;;;;;;11.36;51.45;100952.75;4436183;32;32490;-87
2022/02/09 17:24:45;;;;;;;17.25;7.75;;;;;;;11.07;52.25;100961.50;4444667;32;31987;-86
2022/02/09 17:27:19;;;;;;;19.73;8.65;;;;;;;10.99;52.61;100957.25;4429779;32;32736;-87
2022/02/09 17:32:51;;;;;;;24.33;9.75;;;;;;;10.66;53.41;100953.72;4448931;32;34481;-84
2022/02/09 17:38:06;;;;;;;31.48;13.43;;;;;;;10.77;52.61;100951.66;4452421;32;32948;-84
2022/02/09 17:57:21;;;;;;;63.95;17.02;;;;;;;10.22;53.63;100946.91;4437086;32;32852;-85
2022/02/09 18:00:09;;;;;;;44.97;20.60;;;;;;;10.14;53.89;100951.47;4465431;32;34204;-84
2022/02/09 18:02:38;;;;;;;43.33;17.35;;;;;;;9.82;54.88;100953.06;4457000;32;33854;-84
2022/02/09 18:05:18;;;;;;;46.22;16.50;;;;;;;9.96;54.13;100958.91;4435628;32;33619;-84
2022/02/09 18:07:53;;;;;;;46.30;17.25;;;;;;;9.94;53.88;100957.22;4432067;32;33063;-84
2022/02/09 18:29:40;;;;;;;54.80;23.05;;;;;;;8.84;57.44;100954.19;4446304;32;33189;-86
2022/02/09 18:49:08;;;;;;;73.68;31.80;;;;;;;8.74;56.89;100957.91;4445488;32;33211;-88
2022/02/09 18:56:58;;;;;;;68.72;30.95;;;;;;;8.39;58.02;100957.56;4450300;32;33665;-88
2022/02/09 18:59:32;;;;;;;61.45;24.55;;;;;;;8.56;56.95;100951.19;4439237;32;32948;-87
2022/02/09 19:04:47;;;;;;;56.55;22.62;;;;;;;8.34;57.44;100943.59;4440082;32;32925;-87
2022/02/09 19:18:50;;;;;;;85.57;30.35;;;;;;;8.30;57.15;100960.31;4444610;32;33245;-87
2022/02/09 19:20:58;;;;;;;90.90;32.45;;;;;;;8.28;57.06;100964.75;4443149;32;34543;-87
2022/02/09 19:26:27;;;;;;;73.28;28.17;;;;;;;8.01;57.49;100967.78;4434366;32;32773;-87
2022/02/09 19:32:08;;;;;;;66.40;24.23;;;;;;;7.76;58.33;100959.37;4411466;32;33099;-87
2022/02/09 19:48:23;;;;;;;82.55;30.37;;;;;;;7.67;58.46;100955.13;4460864;32;33889;-87
2022/02/09 19:51:07;;;;;;;88.40;30.08;;;;;;;7.65;58.31;100951.66;4441316;32;31680;-88
2022/02/09 19:54:08;;;;;;;69.05;26.05;;;;;;;7.74;58.05;100958.53;4448691;32;34116;-88
2022/02/09 19:56:26;;;;;;;59.42;24.35;;;;;;;7.59;58.68;100956.97;4430630;32;34458;-87
2022/02/09 19:58:58;;;;;;;58.90;24.12;;;;;;;7.67;58.27;100960.38;4428421;32;32557;-87
2022/02/09 20:01:35;;;;;;;45.95;19.80;;;;;;;7.63;58.10;100948.16;4433223;32;32174;-87
2022/02/09 20:04:04;;;;;;;49.65;20.95;;;;;;;7.80;57.53;100951.44;4447840;32;34864;-86
2022/02/09 20:06:32;;;;;;;47.35;18.70;;;;;;;7.64;57.76;100949.88;4438395;32;32621;-87
2022/02/09 20:09:19;;;;;;;48.13;20.37;;;;;;;7.63;57.81;100949.03;4446359;32;33632;-87
2022/02/09 20:12:05;;;;;;;44.42;20.15;;;;;;;7.53;58.02;100949.16;4447460;32;34453;-87
2022/02/09 20:14:34;;;;;;;44.92;21.42;;;;;;;7.28;58.62;100946.84;4437862;32;33033;-87
2022/02/09 20:17:02;;;;;;;42.78;22.20;;;;;;;7.29;58.52;100950.34;4429337;32;32291;-86
2022/02/09 20:19:30;;;;;;;49.88;21.20;;;;;;;7.32;58.51;100959.06;4436503;32;32442;-86
2022/02/09 20:21:59;;;;;;;43.85;21.00;;;;;;;7.19;58.99;100957.47;4423893;32;32541;-87
2022/02/09 20:24:27;;;;;;;39.75;18.37;;;;;;;7.27;58.79;100960.03;4442898;32;33382;-87
2022/02/09 20:26:59;;;;;;;37.97;17.05;;;;;;;7.00;59.86;100962.06;4441005;32;34153;-87
2022/02/09 20:29:30;;;;;;;42.50;18.95;;;;;;;7.09;nan;100959.31;4443127;32;33361;-88
2022/02/09 20:32:26;;;;;;;39.35;17.52;;;;;;;7.10;59.57;100958.44;4439307;32;33557;-87
2022/02/09 20:34:58;;;;;;;42.17;18.75;;;;;;;7.00;60.06;100955.94;4438063;32;33305;-87
2022/02/09 20:37:32;;;;;;;45.85;18.85;;;;;;;6.99;60.05;100948.94;4450223;32;32284;-87
2022/02/09 20:40:10;;;;;;;41.17;17.65;;;;;;;7.06;59.54;100951.47;4450223;32;32216;-87
2022/02/09 20:42:45;;;;;;;41.92;17.45;;;;;;;7.12;59.39;100953.16;4438672;32;34207;-87
2022/02/09 20:45:21;;;;;;;33.75;15.15;;;;;;;6.96;59.53;100957.72;4443710;32;33802;-87
2022/02/09 20:47:56;;;;;;;28.70;13.45;;;;;;;6.93;59.27;100958.63;4442001;32;33070;-87
2022/02/09 20:50:25;;;;;;;25.60;14.30;;;;;;;6.91;59.24;100954.25;4434436;32;32793;-87
2022/02/09 20:52:53;;;;;;;27.33;12.77;;;;;;;6.85;59.41;100949.94;4437491;32;33531;-87
2022/02/09 20:55:22;;;;;;;33.72;14.68;;;;;;;6.87;59.27;100956.03;4425992;32;33831;-87
2022/02/09 20:57:50;;;;;;;29.50;13.73;;;;;;;7.08;58.77;100949.72;4436000;32;33476;-87
2022/02/09 21:00:26;;;;;;;32.00;13.48;;;;;;;7.03;58.95;100950.66;4447386;32;33353;-87
2022/02/09 21:03:12;;;;;;;26.60;11.98;;;;;;;6.81;59.91;100950.00;4444593;32;34509;-87
2022/02/09 21:13:55;;;;;;;34.42;14.85;;;;;;;6.86;58.73;100943.81;4428554;32;35440;-87
2022/02/09 21:19:56;;;;;;;29.87;13.90;;;;;;;6.93;58.36;100940.25;4448810;32;33836;-87
2022/02/09 21:31:29;;;;;;;29.27;13.32;;;;;;;6.20;60.25;100933.03;4441026;32;33229;-87
2022/02/09 21:54:44;;;;;;;26.50;11.85;;;;;;;5.92;60.21;100939.34;4446873;32;34469;-84
2022/02/09 22:16:31;;;;;;;26.60;13.10;;;;;;;5.78;60.24;100939.41;4459279;32;33800;-84
2022/02/09 22:45:32;;;;;;;21.75;12.25;;;;;;;5.57;60.51;100938.66;4459069;32;33421;-83
2022/02/09 22:45:54;;;;;;;24.92;12.37;;;;;;;5.63;59.90;100932.50;4448924;32;33339;-84
2022/02/09 22:48:35;;;;;;;22.20;10.80;;;;;;;5.46;59.96;100939.56;4444364;32;35408;-84
2022/02/09 22:56:43;;;;;;;19.85;9.77;;;;;;;5.26;60.23;100924.81;4450953;32;32698;-84
2022/02/09 22:59:18;;;;;;;19.65;9.63;;;;;;;5.39;59.74;100918.66;4436232;32;33078;-84
2022/02/09 23:01:58;;;;;;;17.40;7.95;;;;;;;5.39;59.77;100925.63;4459729;32;33396;-85
2022/02/09 23:04:38;;;;;;;15.85;8.57;;;;;;;5.50;59.48;100925.59;4433394;32;32950;-86
2022/02/09 23:07:17;;;;;;;18.52;9.20;;;;;;;5.37;60.17;100928.28;4449227;32;33712;-86
2022/02/09 23:12:32;;;;;;;17.10;9.18;;;;;;;5.32;60.31;100916.09;4436286;32;33228;-85
2022/02/09 23:20:59;;;;;;;15.18;7.07;;;;;;;5.33;60.07;100904.72;4456508;32;33796;-84
